Time;durP1;ratioP1;P1;durP2;ratioP2;P2;SDS_P1;SDS_P2;PMS_P1;PMS_P2;Temp;Humidity;BMP_temperature;BMP_pressure;BME280_temperature;BME280_humidity;BME280_pressure;Samples;Min_cycle;Max_cycle;Signal;HPM_P1;HPM_P2
2021/10/09 00:02:54;;;;;;;64.47;30.67;;;9.90;99.70;;;;;;8368325;28;20524;-78
2021/10/09 00:06:55;;;;;;;41.30;26.13;;;9.80;99.70;;;;;;8354023;28;20182;-77
2021/10/09 00:10:56;;;;;;;51.80;28.10;;;9.80;99.80;;;;;;8360975;28;20579;-77
2021/10/09 00:14:56;;;;;;;45.40;28.47;;;9.80;99.90;;;;;;8356934;28;20175;-78
2021/10/09 00:18:57;;;;;;;49.40;28.77;;;9.70;99.80;;;;;;8360414;28;20203;-78
2021/10/09 00:22:59;;;;;;;56.40;29.87;;;9.70;99.80;;;;;;8364503;28;20194;-87
2021/10/09 00:26:59;;;;;;;49.20;28.30;;;9.70;99.90;;;;;;8379439;28;20220;-77
2021/10/09 00:31:00;;;;;;;53.90;28.80;;;9.70;99.80;;;;;;8364886;28;20503;-79
2021/10/09 00:35:00;;;;;;;56.57;31.30;;;9.60;99.80;;;;;;8368346;28;20189;-78
2021/10/09 00:39:02;;;;;;;80.97;40.90;;;9.60;99.90;;;;;;8376659;28;20193;-78
2021/10/09 00:43:02;;;;;;;72.57;37.67;;;9.60;99.90;;;;;;8351164;28;20179;-78
2021/10/09 00:47:04;;;;;;;77.33;38.77;;;9.70;99.90;;;;;;8360309;28;20738;-78
2021/10/09 00:51:06;;;;;;;73.00;37.30;;;9.80;99.90;;;;;;8343454;28;20559;-77
2021/10/09 00:55:10;;;;;;;89.43;41.17;;;9.80;99.90;;;;;;8347324;28;20461;-78
2021/10/09 00:59:12;;;;;;;80.17;36.90;;;9.90;99.90;;;;;;8353411;28;20433;-79
2021/10/09 01:03:13;;;;;;;70.30;34.70;;;9.90;99.90;;;;;;8340520;28;20493;-77
2021/10/09 01:07:14;;;;;;;59.43;33.20;;;10.00;99.90;;;;;;8371547;28;20424;-78
2021/10/09 01:11:14;;;;;;;52.57;27.97;;;9.90;99.90;;;;;;8355144;28;20213;-77
2021/10/09 01:15:20;;;;;;;53.47;30.73;;;9.90;99.90;;;;;;8391612;28;20844;-77
2021/10/09 01:19:21;;;;;;;51.47;27.63;;;9.80;99.90;;;;;;8362711;28;20179;-77
2021/10/09 01:23:22;;;;;;;56.80;30.70;;;9.70;99.90;;;;;;8369322;28;20489;-77
2021/10/09 01:27:23;;;;;;;48.07;28.63;;;9.60;99.90;;;;;;8372393;28;20179;-77
2021/10/09 01:31:24;;;;;;;53.67;29.10;;;9.50;99.80;;;;;;8371590;28;20461;-77
2021/10/09 01:35:25;;;;;;;62.13;30.00;;;9.30;99.80;;;;;;8354466;28;20563;-77
2021/10/09 01:39:25;;;;;;;52.90;30.03;;;9.20;99.80;;;;;;8369649;28;20644;-77
2021/10/09 01:43:26;;;;;;;49.83;26.17;;;9.20;99.80;;;;;;8376561;28;20174;-77
2021/10/09 01:47:27;;;;;;;53.57;30.23;;;9.10;99.70;;;;;;8372621;28;20174;-77
2021/10/09 01:51:29;;;;;;;53.57;29.40;;;9.00;99.70;;;;;;8388390;28;20253;-77
2021/10/09 01:55:29;;;;;;;61.33;29.83;;;9.00;99.60;;;;;;8352734;28;20237;-77
2021/10/09 01:59:30;;;;;;;59.00;30.73;;;8.90;99.60;;;;;;8370638;28;20417;-77
2021/10/09 02:03:31;;;;;;;54.80;31.37;;;8.80;99.60;;;;;;8372356;28;20216;-77
2021/10/09 02:07:31;;;;;;;49.37;27.73;;;8.70;99.60;;;;;;8397945;28;20174;-77
2021/10/09 02:11:41;;;;;;;48.33;30.93;;;8.70;99.60;;;;;;8368006;28;20233;-77
2021/10/09 02:24:50;;;;;;;58.10;30.10;;;8.50;99.60;;;;;;8346499;28;20423;-78
2021/10/09 02:28:51;;;;;;;62.97;34.87;;;8.40;99.60;;;;;;8382649;28;20470;-77
2021/10/09 02:32:51;;;;;;;66.50;33.77;;;8.40;99.60;;;;;;8387094;28;20404;-78
2021/10/09 02:36:52;;;;;;;70.17;36.03;;;8.30;99.60;;;;;;8385722;28;20202;-78
2021/10/09 02:40:53;;;;;;;65.17;31.97;;;8.30;99.70;;;;;;8388006;28;20218;-78
2021/10/09 02:44:53;;;;;;;65.33;35.77;;;8.30;99.80;;;;;;8372178;28;20495;-78
2021/10/09 02:48:54;;;;;;;61.53;32.07;;;8.20;99.70;;;;;;8379938;28;20186;-78
2021/10/09 02:52:55;;;;;;;77.90;37.13;;;8.20;99.70;;;;;;8381308;28;20230;-78
2021/10/09 02:56:55;;;;;;;75.23;36.70;;;8.20;99.70;;;;;;8363322;28;20294;-78
2021/10/09 03:00:56;;;;;;;70.10;35.67;;;8.20;99.60;;;;;;8383134;28;20174;-78
2021/10/09 03:04:56;;;;;;;66.93;35.63;;;8.20;99.60;;;;;;8384900;28;20180;-78
2021/10/09 03:08:57;;;;;;;75.20;37.50;;;8.10;99.60;;;;;;8396028;28;20192;-78
2021/10/09 03:12:58;;;;;;;76.03;38.07;;;8.10;99.70;;;;;;8395409;28;20186;-78
2021/10/09 03:16:59;;;;;;;95.53;42.30;;;8.10;99.70;;;;;;8378531;28;20264;-78
2021/10/09 03:20:59;;;;;;;119.00;46.83;;;8.10;99.80;;;;;;8379118;28;20432;-78
2021/10/09 03:25:00;;;;;;;89.30;39.03;;;8.10;99.90;;;;;;8359830;28;20514;-81
2021/10/09 03:29:01;;;;;;;99.40;47.23;;;8.10;99.90;;;;;;8375174;28;20219;-77
2021/10/09 03:33:01;;;;;;;101.30;44.50;;;8.20;99.90;;;;;;8352425;28;20227;-77
2021/10/09 03:37:04;;;;;;;92.17;44.70;;;8.20;99.90;;;;;;8373050;28;20532;-77
2021/10/09 03:41:09;;;;;;;98.63;47.10;;;8.20;99.90;;;;;;8374805;28;20255;-76
2021/10/09 03:49:35;;;;;;;94.03;43.70;;;8.20;99.90;;;;;;8368209;28;20404;-78
2021/10/09 03:53:35;;;;;;;88.80;45.17;;;8.10;99.70;;;;;;8369724;28;20401;-78
2021/10/09 03:57:37;;;;;;;104.93;47.77;;;8.10;99.70;;;;;;8350521;28;20968;-77
2021/10/09 04:01:38;;;;;;;100.37;47.73;;;8.10;99.60;;;;;;8369145;28;20231;-78
2021/10/09 04:05:39;;;;;;;105.17;48.70;;;8.10;99.50;;;;;;8368237;28;20414;-78
2021/10/09 04:09:39;;;;;;;98.17;46.23;;;8.00;99.50;;;;;;8348698;28;20180;-78
2021/10/09 04:13:40;;;;;;;91.73;42.50;;;7.90;99.80;;;;;;8366489;28;20186;-78
2021/10/09 04:17:41;;;;;;;80.53;42.60;;;7.80;99.60;;;;;;8350258;28;20211;-78
2021/10/09 04:21:41;;;;;;;79.47;40.50;;;7.80;99.60;;;;;;8369577;28;20440;-78
2021/10/09 04:25:42;;;;;;;71.50;38.83;;;7.70;99.50;;;;;;8420168;28;20190;-77
2021/10/09 04:29:42;;;;;;;97.30;42.90;;;7.70;99.50;;;;;;8374034;28;20231;-78
2021/10/09 04:33:43;;;;;;;73.90;39.00;;;7.60;99.40;;;;;;8380219;28;20185;-77
2021/10/09 04:37:44;;;;;;;89.93;45.80;;;7.60;99.40;;;;;;8373792;28;20222;-76
2021/10/09 04:41:44;;;;;;;89.03;43.97;;;7.50;99.40;;;;;;8364217;28;20193;-77
2021/10/09 04:45:45;;;;;;;94.10;45.80;;;7.50;99.40;;;;;;8349431;28;20227;-78
2021/10/09 04:49:45;;;;;;;83.47;42.30;;;7.50;99.40;;;;;;8356846;28;20189;-78
2021/10/09 04:53:46;;;;;;;95.80;40.70;;;7.40;99.40;;;;;;8320666;28;20180;-78
2021/10/09 04:57:47;;;;;;;94.20;44.20;;;7.40;99.40;;;;;;8364587;28;20261;-78
2021/10/09 05:01:47;;;;;;;81.10;39.40;;;7.30;99.50;;;;;;8351604;28;20322;-78
2021/10/09 05:05:48;;;;;;;90.03;41.77;;;7.30;99.40;;;;;;8359693;28;20266;-78
2021/10/09 05:09:50;;;;;;;72.47;36.67;;;7.30;99.40;;;;;;8390826;28;20185;-78
2021/10/09 05:13:51;;;;;;;78.83;38.37;;;7.20;99.50;;;;;;8359259;28;20187;-78
2021/10/09 05:17:51;;;;;;;89.30;39.77;;;7.10;99.40;;;;;;8356147;28;20520;-79
2021/10/09 05:21:52;;;;;;;85.07;39.00;;;7.10;99.50;;;;;;8344234;28;20183;-78
2021/10/09 05:25:53;;;;;;;79.23;38.80;;;7.00;99.40;;;;;;8358074;28;20160;-76
2021/10/09 05:29:53;;;;;;;88.87;38.10;;;7.00;99.40;;;;;;8415940;28;20230;-78
2021/10/09 05:33:55;;;;;;;80.73;37.53;;;7.00;99.40;;;;;;8353881;28;20543;-77
2021/10/09 05:37:55;;;;;;;86.73;39.47;;;7.00;99.50;;;;;;8343715;28;20249;-77
2021/10/09 05:41:56;;;;;;;89.00;38.53;;;6.90;99.50;;;;;;8385393;28;20450;-77
2021/10/09 05:45:58;;;;;;;82.17;37.93;;;6.90;99.50;;;;;;8348984;28;20183;-78
2021/10/09 05:50:04;;;;;;;75.63;37.60;;;6.90;99.50;;;;;;8378711;28;20184;-77
2021/10/09 05:54:30;;;;;;;84.03;39.33;;;6.90;99.40;;;;;;8400089;28;20449;-77
2021/10/09 07:02:41;;;;;;;86.20;41.63;;;8.20;99.90;;;;;;8373811;28;20454;-77
2021/10/09 07:06:43;;;;;;;89.50;42.27;;;8.50;99.90;;;;;;8335974;28;20445;-77
2021/10/09 07:10:49;;;;;;;67.93;37.80;;;8.80;99.90;;;;;;8355955;28;20436;-77
2021/10/09 07:14:49;;;;;;;64.87;33.93;;;9.20;99.90;;;;;;8372221;28;20436;-80
2021/10/09 07:18:50;;;;;;;69.20;33.40;;;9.50;99.90;;;;;;8366677;28;20461;-76
2021/10/09 07:22:51;;;;;;;68.70;31.60;;;10.00;99.90;;;;;;8352485;28;20179;-78
2021/10/09 07:26:51;;;;;;;58.77;31.83;;;10.50;99.90;;;;;;8356023;28;20655;-77
2021/10/09 07:30:52;;;;;;;57.10;31.37;;;10.80;99.80;;;;;;8340050;28;20235;-76
2021/10/09 07:34:53;;;;;;;66.77;35.63;;;11.10;99.50;;;;;;8333892;28;20263;-77
2021/10/09 07:38:55;;;;;;;62.97;33.40;;;11.20;99.30;;;;;;8384811;28;20222;-77
2021/10/09 07:42:55;;;;;;;63.90;33.83;;;11.40;99.30;;;;;;8351888;28;20213;-77
2021/10/09 07:46:56;;;;;;;57.57;32.23;;;11.70;99.30;;;;;;8361474;28;20443;-77
2021/10/09 07:50:57;;;;;;;54.00;30.43;;;11.90;99.30;;;;;;8340065;28;20180;-77
2021/10/09 07:54:57;;;;;;;58.40;31.03;;;12.10;99.20;;;;;;8379822;28;20187;-78
2021/10/09 07:58:58;;;;;;;51.63;32.30;;;12.40;99.00;;;;;;8366160;28;20655;-78
2021/10/09 08:03:03;;;;;;;57.10;32.90;;;12.60;98.70;;;;;;8341214;28;20185;-78
2021/10/09 08:07:04;;;;;;;55.77;34.13;;;12.80;98.50;;;;;;8354159;28;20186;-77
2021/10/09 08:11:05;;;;;;;64.63;34.77;;;13.00;98.40;;;;;;8344350;28;20474;-77
2021/10/09 08:15:06;;;;;;;57.67;32.57;;;13.10;98.00;;;;;;8328971;28;20543;-77
2021/10/09 08:19:07;;;;;;;64.57;35.10;;;13.40;98.00;;;;;;8326637;28;20194;-78
2021/10/09 08:23:21;;;;;;;54.60;32.80;;;13.70;97.40;;;;;;8348669;28;20536;-77
2021/10/09 08:40:00;;;;;;;48.83;30.73;;;15.10;96.80;;;;;;8362912;28;20548;-77
2021/10/09 08:44:01;;;;;;;51.33;31.80;;;15.60;96.10;;;;;;8368265;28;20437;-77
2021/10/09 08:48:01;;;;;;;52.60;28.83;;;15.90;95.70;;;;;;8383758;28;20196;-77
2021/10/09 08:52:03;;;;;;;56.27;30.80;;;16.30;95.30;;;;;;8342940;28;20212;-77
2021/10/09 08:56:04;;;;;;;48.83;28.07;;;16.70;94.30;;;;;;8355105;28;20218;-78
2021/10/09 09:00:10;;;;;;;45.77;28.60;;;17.00;93.10;;;;;;8347608;28;20441;-77
2021/10/09 09:25:32;;;;;;;38.30;22.10;;;18.40;87.10;;;;;;8362027;28;20478;-77
2021/10/09 09:34:09;;;;;;;39.03;24.17;;;19.40;83.50;;;;;;8377247;28;21570;-78
2021/10/09 09:42:52;;;;;;;35.47;21.80;;;20.30;81.90;;;;;;8340821;28;20458;-77
2021/10/09 09:47:05;;;;;;;39.63;21.60;;;20.90;80.40;;;;;;8364507;28;20454;-77
2021/10/09 09:51:06;;;;;;;30.90;20.33;;;21.20;79.20;;;;;;8380960;28;20403;-77
2021/10/09 09:55:09;;;;;;;33.00;19.33;;;21.50;77.70;;;;;;8367400;28;20430;-77
2021/10/09 09:59:11;;;;;;;31.27;19.53;;;21.40;75.20;;;;;;8344004;28;20201;-77
2021/10/09 10:03:11;;;;;;;30.30;18.17;;;20.90;74.70;;;;;;8345810;28;20712;-77
2021/10/09 10:07:12;;;;;;;35.97;21.60;;;20.70;76.80;;;;;;8370040;28;20537;-78
2021/10/09 10:11:18;;;;;;;33.57;20.70;;;20.70;75.50;;;;;;8335957;28;20794;-78
2021/10/09 10:15:19;;;;;;;34.53;19.50;;;20.40;75.40;;;;;;8359229;28;20172;-77
2021/10/09 10:19:20;;;;;;;33.80;19.20;;;20.20;76.60;;;;;;8387780;28;20437;-77
2021/10/09 10:23:37;;;;;;;32.73;20.63;;;20.20;76.90;;;;;;8383780;28;20182;-76
2021/10/09 10:27:42;;;;;;;28.63;18.40;;;20.30;76.50;;;;;;8399850;28;20253;-73
2021/10/09 10:32:09;;;;;;;26.37;18.60;;;20.50;77.20;;;;;;8343228;28;1170841;-74
2021/10/09 10:36:12;;;;;;;28.47;18.10;;;20.70;75.50;;;;;;8403245;28;20661;-74
2021/10/09 10:40:45;;;;;;;23.20;16.57;;;20.60;74.60;;;;;;8401953;28;20413;-74
2021/10/09 10:45:13;;;;;;;26.43;17.30;;;20.30;75.00;;;;;;8397374;28;20498;-74
2021/10/09 10:57:21;;;;;;;36.17;23.73;;;20.10;76.70;;;;;;8355625;28;20464;-75
2021/10/09 11:01:23;;;;;;;32.27;19.97;;;20.10;77.10;;;;;;8332991;28;20435;-74
2021/10/09 11:05:25;;;;;;;28.47;19.63;;;20.00;77.00;;;;;;8338118;28;20465;-73
2021/10/09 11:09:26;;;;;;;32.23;17.80;;;20.00;77.30;;;;;;8336178;28;20493;-74
2021/10/09 11:13:27;;;;;;;43.17;16.37;;;20.20;76.80;;;;;;8341759;28;20808;-73
2021/10/09 11:17:38;;;;;;;29.83;16.10;;;20.30;75.20;;;;;;8345681;28;20686;-73
2021/10/09 11:21:54;;;;;;;28.40;15.77;;;20.20;74.70;;;;;;8346467;28;20183;-74
2021/10/09 11:25:55;;;;;;;26.60;16.20;;;20.10;74.70;;;;;;8375116;28;20422;-74
2021/10/09 11:30:09;;;;;;;21.80;15.23;;;20.00;75.10;;;;;;8378188;28;20839;-74
2021/10/09 11:34:10;;;;;;;22.50;15.00;;;19.90;75.00;;;;;;8373461;28;20174;-73
2021/10/09 11:38:22;;;;;;;28.53;15.53;;;20.00;75.20;;;;;;8356755;28;20805;-74
2021/10/09 11:42:28;;;;;;;24.00;17.07;;;20.20;75.10;;;;;;8351481;28;20228;-74
2021/10/09 11:46:48;;;;;;;19.67;13.90;;;20.40;75.00;;;;;;8318836;28;20444;-72
2021/10/09 11:55:20;;;;;;;20.40;15.13;;;20.50;74.00;;;;;;8359866;28;20807;-73
2021/10/09 11:59:38;;;;;;;26.50;14.57;;;20.60;74.10;;;;;;8338997;28;20521;-73
2021/10/09 12:03:39;;;;;;;21.57;14.43;;;20.70;73.60;;;;;;8340139;28;20476;-73
2021/10/09 12:07:39;;;;;;;23.03;13.97;;;20.60;73.90;;;;;;8360221;28;20496;-73
2021/10/09 12:11:41;;;;;;;22.07;14.37;;;20.70;74.00;;;;;;8379836;28;20265;-73
2021/10/09 12:15:43;;;;;;;25.87;15.33;;;20.70;72.80;;;;;;8364203;28;20651;-72
2021/10/09 12:19:46;;;;;;;20.33;14.07;;;20.50;73.00;;;;;;8364523;28;20412;-72
2021/10/09 12:23:46;;;;;;;25.97;14.60;;;20.50;73.40;;;;;;8362274;28;20487;-75
2021/10/09 12:27:54;;;;;;;23.37;14.63;;;20.50;73.80;;;;;;8343460;28;20444;-73
2021/10/09 12:31:56;;;;;;;29.73;13.37;;;20.80;72.90;;;;;;8342410;28;20234;-77
2021/10/09 12:35:58;;;;;;;19.90;13.83;;;20.80;72.50;;;;;;8368181;28;20506;-77
2021/10/09 12:40:15;;;;;;;19.03;12.40;;;20.90;72.50;;;;;;8382431;28;20429;-76
2021/10/09 12:44:17;;;;;;;21.37;13.67;;;21.20;73.30;;;;;;8365201;28;20919;-77
2021/10/09 12:48:19;;;;;;;27.17;14.33;;;21.90;73.20;;;;;;8339230;28;20434;-78
2021/10/09 12:52:19;;;;;;;22.80;15.27;;;22.10;70.10;;;;;;8334898;28;20905;-78
2021/10/09 14:55:30;;;;;;;23.53;14.40;;;18.40;80.50;;;;;;8404880;28;20583;-80
2021/10/09 15:17:21;;;;;;;23.17;12.87;;;21.00;75.90;;;;;;8403642;28;20419;-78
2021/10/09 15:21:12;;;;;;;20.57;11.37;;;21.10;75.80;;;;;;8403497;28;20426;-79
2021/10/09 15:25:14;;;;;;;17.07;12.37;;;21.10;75.40;;;;;;8410758;28;20450;-79
2021/10/09 15:29:15;;;;;;;17.60;12.33;;;21.00;74.60;;;;;;8419955;28;20166;-80
2021/10/09 15:33:15;;;;;;;19.93;12.80;;;20.80;75.10;;;;;;8415461;28;20507;-80
2021/10/09 15:37:16;;;;;;;17.47;11.40;;;20.80;75.90;;;;;;8410083;28;20177;-78
2021/10/09 15:41:17;;;;;;;25.70;13.60;;;20.60;76.00;;;;;;8402680;28;20192;-79
2021/10/09 15:45:19;;;;;;;30.20;22.97;;;20.50;76.40;;;;;;8444159;28;20171;-79
2021/10/09 15:49:20;;;;;;;30.50;24.03;;;20.30;76.30;;;;;;8403505;28;20179;-79
2021/10/09 15:53:21;;;;;;;17.83;14.33;;;20.10;77.30;;;;;;8427809;28;20485;-79
2021/10/09 15:57:22;;;;;;;16.50;12.43;;;19.90;78.20;;;;;;8415873;28;20495;-77
2021/10/09 16:01:24;;;;;;;17.77;13.10;;;19.70;79.80;;;;;;8423085;28;20427;-79
2021/10/09 16:05:25;;;;;;;25.77;13.77;;;19.50;80.80;;;;;;8401123;28;20175;-78
2021/10/09 16:09:26;;;;;;;21.57;13.20;;;19.30;80.10;;;;;;8400001;28;20410;-79
2021/10/09 16:13:29;;;;;;;23.03;14.73;;;19.10;81.50;;;;;;8400981;28;20289;-80
2021/10/09 16:17:32;;;;;;;24.90;13.80;;;18.90;82.50;;;;;;8395103;28;20183;-79
2021/10/09 16:21:34;;;;;;;20.00;13.53;;;18.60;84.40;;;;;;8396540;28;20421;-80
2021/10/09 16:25:34;;;;;;;25.17;15.77;;;18.40;85.30;;;;;;8385912;28;20475;-80
2021/10/09 16:29:35;;;;;;;17.40;13.90;;;18.20;86.50;;;;;;8391753;28;20528;-76
2021/10/09 16:33:36;;;;;;;19.97;14.20;;;17.90;87.80;;;;;;8398299;28;20199;-78
2021/10/09 16:37:38;;;;;;;20.80;13.40;;;17.70;89.30;;;;;;8386255;28;20467;-82
2021/10/09 16:41:38;;;;;;;27.40;14.80;;;17.40;90.00;;;;;;8393701;28;20177;-77
2021/10/09 16:45:40;;;;;;;21.57;15.00;;;17.10;90.30;;;;;;8384581;28;20451;-75
2021/10/09 16:49:41;;;;;;;24.93;16.70;;;16.90;90.70;;;;;;8389722;28;20170;-77
2021/10/09 16:53:41;;;;;;;23.80;14.70;;;16.60;91.10;;;;;;8382628;28;20486;-78
2021/10/09 16:57:42;;;;;;;24.33;16.77;;;16.40;91.40;;;;;;8386100;28;20214;-79
2021/10/09 17:01:43;;;;;;;28.97;15.80;;;16.20;91.60;;;;;;8389157;28;20202;-80
2021/10/09 17:05:43;;;;;;;32.20;17.60;;;16.00;92.10;;;;;;8394364;28;20179;-79
2021/10/09 17:09:46;;;;;;;25.43;17.60;;;15.80;92.40;;;;;;8394837;28;20204;-79
2021/10/09 17:13:46;;;;;;;38.85;22.83;;;15.70;92.80;;;;;;8394546;28;20459;-79
2021/10/09 17:17:47;;;;;;;41.00;21.70;;;15.50;93.00;;;;;;8394393;28;20183;-79
2021/10/09 17:21:47;;;;;;;49.53;27.00;;;15.30;93.20;;;;;;8393678;28;20555;-80
2021/10/09 17:25:48;;;;;;;45.53;26.80;;;15.10;93.70;;;;;;8391939;28;20185;-80
2021/10/09 17:29:49;;;;;;;38.13;24.20;;;15.00;94.20;;;;;;8392951;28;20180;-78
2021/10/09 17:33:49;;;;;;;34.90;21.67;;;14.90;94.40;;;;;;8390862;28;20298;-79
2021/10/09 17:37:51;;;;;;;38.90;23.27;;;14.70;94.60;;;;;;8390683;28;20510;-78
2021/10/09 17:41:52;;;;;;;43.73;26.10;;;14.60;94.70;;;;;;8385477;28;20185;-78
2021/10/09 17:45:53;;;;;;;46.77;27.50;;;14.40;94.80;;;;;;8385899;28;20420;-78
2021/10/09 17:49:53;;;;;;;45.60;27.15;;;14.30;95.00;;;;;;8386578;28;20423;-82
2021/10/09 17:53:54;;;;;;;49.83;30.80;;;14.10;95.30;;;;;;8382071;28;20554;-82
2021/10/09 17:57:55;;;;;;;41.67;25.80;;;14.10;95.30;;;;;;8390719;28;20173;-81
2021/10/09 18:01:55;;;;;;;54.90;33.40;;;14.00;95.20;;;;;;8386550;28;20264;-78
2021/10/09 18:05:56;;;;;;;45.30;26.27;;;13.90;95.50;;;;;;8367299;28;20643;-77
2021/10/09 18:09:57;;;;;;;59.43;39.33;;;13.80;95.70;;;;;;8347750;28;20237;-76
2021/10/09 18:13:57;;;;;;;40.17;23.77;;;13.70;95.80;;;;;;8333103;28;20211;-77
2021/10/09 18:18:00;;;;;;;37.07;21.90;;;13.60;95.80;;;;;;8333233;28;20180;-78
2021/10/09 18:22:00;;;;;;;59.97;23.50;;;13.60;95.80;;;;;;8366581;28;20266;-76
2021/10/09 18:26:01;;;;;;;41.83;22.23;;;13.60;95.70;;;;;;8369625;28;20413;-76
2021/10/09 18:30:02;;;;;;;38.10;22.13;;;13.50;95.60;;;;;;8366787;28;20201;-77
2021/10/09 18:34:03;;;;;;;32.63;20.17;;;13.50;95.60;;;;;;8366752;28;20209;-76
2021/10/09 18:38:03;;;;;;;34.37;21.50;;;13.50;95.70;;;;;;8365765;28;20431;-77
2021/10/09 18:42:04;;;;;;;35.07;21.00;;;13.50;95.70;;;;;;8366993;28;20185;-76
2021/10/09 18:46:05;;;;;;;35.20;22.60;;;13.50;95.70;;;;;;8365264;28;20408;-77
2021/10/09 18:50:07;;;;;;;33.90;21.20;;;13.40;95.70;;;;;;8367280;28;20456;-78
2021/10/09 18:54:07;;;;;;;39.23;21.50;;;13.40;95.50;;;;;;8365852;28;20573;-77
2021/10/09 18:58:08;;;;;;;35.23;22.00;;;13.40;95.50;;;;;;8366026;28;20414;-77
2021/10/09 19:02:08;;;;;;;45.50;29.40;;;13.30;95.40;;;;;;8369211;28;20554;-78
2021/10/09 19:06:11;;;;;;;43.07;24.77;;;13.10;95.40;;;;;;8371638;28;20173;-77
2021/10/09 19:10:13;;;;;;;30.03;20.57;;;12.90;95.60;;;;;;8375967;28;20211;-78
2021/10/09 19:14:18;;;;;;;41.03;26.53;;;12.80;95.70;;;;;;8370478;28;20458;-78
2021/10/09 19:18:19;;;;;;;27.87;20.93;;;12.70;95.70;;;;;;8375689;28;20454;-78
2021/10/09 19:22:22;;;;;;;28.40;19.50;;;12.60;95.60;;;;;;8369307;28;20513;-77
2021/10/09 19:26:22;;;;;;;32.23;20.77;;;12.50;95.60;;;;;;8370190;28;20956;-77
2021/10/09 19:30:23;;;;;;;38.37;21.90;;;12.40;95.60;;;;;;8370015;28;20425;-78
2021/10/09 19:38:25;;;;;;;34.50;21.50;;;12.10;95.80;;;;;;8368833;28;20206;-78
2021/10/09 19:42:26;;;;;;;35.80;22.90;;;11.90;96.10;;;;;;8339828;28;20434;-79
2021/10/09 19:46:27;;;;;;;29.63;19.23;;;11.70;96.30;;;;;;8352391;28;20946;-85
2021/10/09 19:50:32;;;;;;;28.67;20.10;;;11.60;96.30;;;;;;8352939;28;20480;-79
2021/10/09 19:54:35;;;;;;;40.27;18.97;;;11.40;96.30;;;;;;8350295;28;20253;-83
2021/10/09 19:58:36;;;;;;;33.73;22.70;;;11.20;96.50;;;;;;8338042;28;20588;-78
2021/10/09 20:02:37;;;;;;;34.63;22.37;;;11.00;96.90;;;;;;8341086;28;20430;-78
2021/10/09 20:06:38;;;;;;;32.10;22.43;;;10.90;97.30;;;;;;8339243;28;20509;-77
2021/10/09 20:10:51;;;;;;;41.47;23.73;;;10.90;97.50;;;;;;8342849;28;20419;-78
2021/10/09 20:14:52;;;;;;;37.50;21.53;;;10.80;97.50;;;;;;8341156;28;20759;-78
2021/10/09 20:18:53;;;;;;;38.07;20.33;;;10.80;97.50;;;;;;8341727;28;20419;-78
2021/10/09 20:26:57;;;;;;;31.50;20.63;;;10.60;97.50;;;;;;8345423;28;20176;-78
2021/10/09 20:30:58;;;;;;;40.33;23.43;;;10.50;97.50;;;;;;8337170;28;20411;-78
2021/10/09 20:34:58;;;;;;;34.87;19.97;;;10.50;97.40;;;;;;8359604;28;20210;-78
2021/10/09 20:38:59;;;;;;;32.97;21.83;;;10.40;97.40;;;;;;8355925;28;20180;-78
2021/10/09 20:43:00;;;;;;;39.03;21.73;;;10.30;97.40;;;;;;8347245;28;20286;-78
2021/10/09 20:47:02;;;;;;;33.23;19.53;;;10.20;97.50;;;;;;8347105;28;20217;-79
2021/10/09 20:51:02;;;;;;;32.40;20.47;;;10.10;97.50;;;;;;8348069;28;20422;-78
2021/10/09 20:55:04;;;;;;;33.17;19.77;;;10.00;97.50;;;;;;8342650;28;20489;-78
2021/10/09 20:59:05;;;;;;;34.23;20.30;;;9.90;97.50;;;;;;8349985;28;20176;-78
2021/10/09 21:03:06;;;;;;;36.43;20.70;;;9.80;97.60;;;;;;8342860;28;20418;-78
2021/10/09 21:07:18;;;;;;;31.33;17.63;;;9.70;97.60;;;;;;8340782;28;20168;-79
2021/10/09 21:11:23;;;;;;;26.60;17.23;;;9.70;97.70;;;;;;8341553;28;20159;-78
2021/10/09 21:23:46;;;;;;;27.87;17.40;;;9.40;97.50;;;;;;8342514;28;20909;-78
2021/10/09 21:27:47;;;;;;;28.43;16.87;;;9.30;97.70;;;;;;8335413;28;20430;-78
2021/10/09 21:31:48;;;;;;;30.10;18.40;;;9.30;97.70;;;;;;8339903;28;20905;-77
2021/10/09 21:35:49;;;;;;;31.10;19.40;;;9.20;97.70;;;;;;8340115;28;20176;-78
2021/10/09 21:39:49;;;;;;;26.57;19.17;;;9.20;97.60;;;;;;8338178;28;20175;-78
2021/10/09 21:43:50;;;;;;;28.40;19.13;;;9.10;97.60;;;;;;8337439;28;20182;-78
2021/10/09 21:47:53;;;;;;;35.23;17.70;;;9.10;97.70;;;;;;8338454;28;20309;-79
2021/10/09 21:51:55;;;;;;;26.77;17.10;;;9.10;97.70;;;;;;8336047;28;20313;-78
2021/10/09 21:55:58;;;;;;;29.00;18.37;;;9.10;97.80;;;;;;8342909;28;20434;-78
2021/10/09 22:00:38;;;;;;;31.33;20.03;;;9.10;97.90;;;;;;8350128;28;20461;-78
2021/10/09 22:17:21;;;;;;;42.43;17.77;;;9.30;98.60;;;;;;8338823;28;20481;-78
2021/10/09 22:34:25;;;;;;;27.13;17.63;;;9.50;98.70;;;;;;8337902;28;20508;-78
2021/10/09 22:38:25;;;;;;;26.80;17.43;;;9.50;98.60;;;;;;8336626;28;20422;-78
2021/10/09 22:42:26;;;;;;;25.33;15.07;;;9.50;98.50;;;;;;8337102;28;20180;-78
2021/10/09 22:46:27;;;;;;;29.23;15.00;;;9.50;98.40;;;;;;8339065;28;20162;-78
2021/10/09 22:50:27;;;;;;;26.70;15.27;;;9.40;98.20;;;;;;8345794;28;20179;-78
2021/10/09 22:54:28;;;;;;;29.97;15.97;;;9.30;98.10;;;;;;8354158;28;20229;-78
2021/10/09 22:58:28;;;;;;;27.30;16.57;;;9.20;98.10;;;;;;8333796;28;20175;-77
2021/10/09 23:02:29;;;;;;;23.40;15.70;;;9.10;98.30;;;;;;8333928;28;20179;-77
2021/10/09 23:06:30;;;;;;;25.60;15.80;;;9.00;98.10;;;;;;8338369;28;20511;-78
2021/10/09 23:10:31;;;;;;;23.77;16.73;;;8.90;98.10;;;;;;8337596;28;20175;-78
2021/10/09 23:14:32;;;;;;;32.43;18.10;;;8.80;98.20;;;;;;8340298;28;20221;-78
2021/10/09 23:18:33;;;;;;;26.10;16.00;;;8.70;98.20;;;;;;8343844;28;20869;-78
2021/10/09 23:22:34;;;;;;;29.30;17.07;;;8.70;98.30;;;;;;8348025;28;20185;-78
2021/10/09 23:26:34;;;;;;;26.23;16.50;;;8.60;98.30;;;;;;8342039;28;20182;-78
2021/10/09 23:30:35;;;;;;;28.53;16.43;;;8.60;98.30;;;;;;8338704;28;20176;-79
2021/10/09 23:34:36;;;;;;;35.47;17.47;;;8.50;98.30;;;;;;8346464;28;20222;-78
2021/10/09 23:38:36;;;;;;;25.07;16.90;;;8.50;98.30;;;;;;8353765;28;20174;-79
2021/10/09 23:42:37;;;;;;;25.10;15.67;;;8.40;98.30;;;;;;8351252;28;20265;-79
2021/10/09 23:46:38;;;;;;;33.80;17.10;;;8.40;98.30;;;;;;8338875;28;20221;-78
2021/10/09 23:50:38;;;;;;;26.57;16.40;;;8.30;98.30;;;;;;8342694;28;20184;-78
2021/10/09 23:54:39;;;;;;;23.40;16.63;;;8.30;98.30;;;;;;8379567;28;20241;-78
2021/10/09 23:58:39;;;;;;;32.40;18.10;;;8.20;98.20;;;;;;8345086;28;20511;-79
